sensor_id;sensor_type;location;lat;lon;timestamp;temperature;humidity
5705;DHT22;2877;48.238;11.160;2023-02-28T00:00:07;-2.20;99.90
5705;DHT22;2877;48.238;11.160;2023-02-28T00:02:44;-2.20;99.90
5705;DHT22;2877;48.238;11.160;2023-02-28T00:05:12;-2.30;99.90
5705;DHT22;2877;48.238;11.160;2023-02-28T00:07:38;-2.30;99.90
5705;DHT22;2877;48.238;11.160;2023-02-28T00:10:08;-2.30;99.90
5705;DHT22;2877;48.238;11.160;2023-02-28T00:12:35;-2.40;99.90
5705;DHT22;2877;48.238;11.160;2023-02-28T00:15:04;-2.40;99.90
5705;DHT22;2877;48.238;11.160;2023-02-28T00:17:30;-2.50;99.90
5705;DHT22;2877;48.238;11.160;2023-02-28T00:19:56;-2.50;99.90
5705;DHT22;2877;48.238;11.160;2023-02-28T00:22:22;-2.60;99.90
5705;DHT22;2877;48.238;11.160;2023-02-28T00:24:47;-2.50;99.90
5705;DHT22;2877;48.238;11.160;2023-02-28T00:27:14;-2.60;99.90
5705;DHT22;2877;48.238;11.160;2023-02-28T00:29:40;-2.60;99.90
5705;DHT22;2877;48.238;11.160;2023-02-28T00:32:06;-2.60;99.90
5705;DHT22;2877;48.238;11.160;2023-02-28T00:34:32;-2.60;99.90
5705;DHT22;2877;48.238;11.160;2023-02-28T00:37:06;-2.70;99.90
5705;DHT22;2877;48.238;11.160;2023-02-28T00:39:33;-2.70;99.90
5705;DHT22;2877;48.238;11.160;2023-02-28T00:41:59;-2.70;99.90
5705;DHT22;2877;48.238;11.160;2023-02-28T00:44:25;-2.70;99.90
5705;DHT22;2877;48.238;11.160;2023-02-28T00:46:50;-2.80;99.90
5705;DHT22;2877;48.238;11.160;2023-02-28T00:49:17;-2.80;99.90
5705;DHT22;2877;48.238;11.160;2023-02-28T00:51:42;-2.80;99.90
5705;DHT22;2877;48.238;11.160;2023-02-28T00:54:08;-2.80;99.90
5705;DHT22;2877;48.238;11.160;2023-02-28T00:56:33;-2.80;99.90
5705;DHT22;2877;48.238;11.160;2023-02-28T00:58:59;-2.90;99.90
5705;DHT22;2877;48.238;11.160;2023-02-28T01:01:24;-2.90;99.90
5705;DHT22;2877;48.238;11.160;2023-02-28T01:03:50;-2.90;99.90
5705;DHT22;2877;48.238;11.160;2023-02-28T01:06:15;-2.90;99.90
5705;DHT22;2877;48.238;11.160;2023-02-28T01:08:41;-2.90;99.90
5705;DHT22;2877;48.238;11.160;2023-02-28T01:11:12;-3.00;99.90
5705;DHT22;2877;48.238;11.160;2023-02-28T01:13:38;-3.00;99.90
5705;DHT22;2877;48.238;11.160;2023-02-28T01:16:03;-3.00;99.90
5705;DHT22;2877;48.238;11.160;2023-02-28T01:18:29;-3.10;99.90
5705;DHT22;2877;48.238;11.160;2023-02-28T01:20:56;-3.10;99.90
5705;DHT22;2877;48.238;11.160;2023-02-28T01:23:22;-3.10;99.90
5705;DHT22;2877;48.238;11.160;2023-02-28T01:25:49;-3.20;99.90
5705;DHT22;2877;48.238;11.160;2023-02-28T01:28:15;-3.20;99.90
5705;DHT22;2877;48.238;11.160;2023-02-28T01:30:40;-3.20;99.90
5705;DHT22;2877;48.238;11.160;2023-02-28T01:33:06;-3.30;99.90
5705;DHT22;2877;48.238;11.160;2023-02-28T01:35:35;-3.30;99.90
5705;DHT22;2877;48.238;11.160;2023-02-28T01:38:01;-3.30;99.90
5705;DHT22;2877;48.238;11.160;2023-02-28T01:40:27;-3.30;99.90
5705;DHT22;2877;48.238;11.160;2023-02-28T01:42:53;-3.40;99.90
5705;DHT22;2877;48.238;11.160;2023-02-28T01:45:25;-3.40;99.90
5705;DHT22;2877;48.238;11.160;2023-02-28T01:47:54;-3.50;99.90
5705;DHT22;2877;48.238;11.160;2023-02-28T01:50:23;-3.40;99.90
5705;DHT22;2877;48.238;11.160;2023-02-28T01:52:51;-3.40;99.90
5705;DHT22;2877;48.238;11.160;2023-02-28T01:55:20;-3.50;99.90
5705;DHT22;2877;48.238;11.160;2023-02-28T01:57:51;-3.50;99.90
5705;DHT22;2877;48.238;11.160;2023-02-28T02:00:21;-3.50;99.90
5705;DHT22;2877;48.238;11.160;2023-02-28T02:02:51;-3.50;99.90
5705;DHT22;2877;48.238;11.160;2023-02-28T02:05:23;-3.50;99.90
5705;DHT22;2877;48.238;11.160;2023-02-28T02:07:52;-3.50;99.90
5705;DHT22;2877;48.238;11.160;2023-02-28T02:10:21;-3.50;99.90
5705;DHT22;2877;48.238;11.160;2023-02-28T02:15:35;-3.60;99.90
5705;DHT22;2877;48.238;11.160;2023-02-28T02:24:03;-3.60;99.90
5705;DHT22;2877;48.238;11.160;2023-02-28T02:30:11;-3.70;99.90
5705;DHT22;2877;48.238;11.160;2023-02-28T02:35:38;-3.70;99.90
5705;DHT22;2877;48.238;11.160;2023-02-28T02:38:24;-3.70;99.90
5705;DHT22;2877;48.238;11.160;2023-02-28T02:41:13;-3.80;99.90
5705;DHT22;2877;48.238;11.160;2023-02-28T02:43:48;-3.80;99.90
5705;DHT22;2877;48.238;11.160;2023-02-28T02:46:44;-3.80;99.90
5705;DHT22;2877;48.238;11.160;2023-02-28T02:49:19;-3.80;99.90
5705;DHT22;2877;48.238;11.160;2023-02-28T02:51:47;-3.80;99.90
5705;DHT22;2877;48.238;11.160;2023-02-28T02:54:43;-3.90;99.90
5705;DHT22;2877;48.238;11.160;2023-02-28T02:57:21;-3.90;99.90
5705;DHT22;2877;48.238;11.160;2023-02-28T02:59:49;-3.90;99.90
5705;DHT22;2877;48.238;11.160;2023-02-28T03:02:17;-3.90;99.90
5705;DHT22;2877;48.238;11.160;2023-02-28T03:04:46;-4.00;99.90
5705;DHT22;2877;48.238;11.160;2023-02-28T03:07:13;-4.00;99.90
5705;DHT22;2877;48.238;11.160;2023-02-28T03:09:39;-4.00;99.90
5705;DHT22;2877;48.238;11.160;2023-02-28T03:12:08;-4.00;99.90
5705;DHT22;2877;48.238;11.160;2023-02-28T03:14:56;-4.00;99.90
5705;DHT22;2877;48.238;11.160;2023-02-28T03:17:35;-3.90;99.90
5705;DHT22;2877;48.238;11.160;2023-02-28T03:28:08;-3.80;99.90
5705;DHT22;2877;48.238;11.160;2023-02-28T03:30:46;-3.80;99.90
5705;DHT22;2877;48.238;11.160;2023-02-28T03:35:54;-3.80;99.90
5705;DHT22;2877;48.238;11.160;2023-02-28T03:38:33;-3.80;99.90
5705;DHT22;2877;48.238;11.160;2023-02-28T03:41:15;-3.80;99.90
5705;DHT22;2877;48.238;11.160;2023-02-28T03:43:48;-3.70;99.90
5705;DHT22;2877;48.238;11.160;2023-02-28T03:46:17;-3.70;99.90
5705;DHT22;2877;48.238;11.160;2023-02-28T03:48:51;-3.60;99.90
5705;DHT22;2877;48.238;11.160;2023-02-28T03:51:22;-3.50;99.90
5705;DHT22;2877;48.238;11.160;2023-02-28T03:54:04;-3.50;99.90
5705;DHT22;2877;48.238;11.160;2023-02-28T03:56:36;-3.50;99.90
5705;DHT22;2877;48.238;11.160;2023-02-28T04:01:46;-3.30;99.90
5705;DHT22;2877;48.238;11.160;2023-02-28T04:04:13;-3.20;99.90
5705;DHT22;2877;48.238;11.160;2023-02-28T04:06:40;-3.20;99.90
5705;DHT22;2877;48.238;11.160;2023-02-28T04:09:06;-3.10;99.90
5705;DHT22;2877;48.238;11.160;2023-02-28T04:11:42;-3.10;99.90
5705;DHT22;2877;48.238;11.160;2023-02-28T04:14:09;-3.00;99.90
5705;DHT22;2877;48.238;11.160;2023-02-28T04:16:37;-3.00;99.90
5705;DHT22;2877;48.238;11.160;2023-02-28T04:19:04;-2.90;99.90
5705;DHT22;2877;48.238;11.160;2023-02-28T04:21:33;-2.90;99.90
5705;DHT22;2877;48.238;11.160;2023-02-28T04:23:58;-2.90;99.90
5705;DHT22;2877;48.238;11.160;2023-02-28T04:26:28;-2.90;99.90
5705;DHT22;2877;48.238;11.160;2023-02-28T04:28:55;-2.90;99.90
5705;DHT22;2877;48.238;11.160;2023-02-28T04:31:20;-2.90;99.90
5705;DHT22;2877;48.238;11.160;2023-02-28T04:33:46;-2.80;99.90
5705;DHT22;2877;48.238;11.160;2023-02-28T04:36:11;-2.80;99.90
5705;DHT22;2877;48.238;11.160;2023-02-28T04:38:38;-2.80;99.90
5705;DHT22;2877;48.238;11.160;2023-02-28T04:41:04;-2.80;99.90
5705;DHT22;2877;48.238;11.160;2023-02-28T04:43:31;-2.80;99.90
5705;DHT22;2877;48.238;11.160;2023-02-28T04:45:58;-2.70;99.90
5705;DHT22;2877;48.238;11.160;2023-02-28T04:48:27;-2.70;99.90
5705;DHT22;2877;48.238;11.160;2023-02-28T04:50:53;-2.70;99.90
5705;DHT22;2877;48.238;11.160;2023-02-28T04:53:19;-2.70;99.90
5705;DHT22;2877;48.238;11.160;2023-02-28T04:55:44;-2.70;99.90
5705;DHT22;2877;48.238;11.160;2023-02-28T04:58:11;-2.60;99.90
5705;DHT22;2877;48.238;11.160;2023-02-28T05:00:36;-2.60;99.90
5705;DHT22;2877;48.238;11.160;2023-02-28T05:03:02;-2.60;99.90
5705;DHT22;2877;48.238;11.160;2023-02-28T05:05:28;-2.60;99.90
5705;DHT22;2877;48.238;11.160;2023-02-28T05:07:53;-2.60;99.90
5705;DHT22;2877;48.238;11.160;2023-02-28T05:10:21;-2.60;99.90
5705;DHT22;2877;48.238;11.160;2023-02-28T05:12:47;-2.60;99.90
5705;DHT22;2877;48.238;11.160;2023-02-28T05:15:14;-2.60;99.90
5705;DHT22;2877;48.238;11.160;2023-02-28T05:17:40;-2.60;99.90
5705;DHT22;2877;48.238;11.160;2023-02-28T05:20:07;-2.60;99.90
5705;DHT22;2877;48.238;11.160;2023-02-28T05:22:36;-2.60;99.90
5705;DHT22;2877;48.238;11.160;2023-02-28T05:25:03;-2.60;99.90
5705;DHT22;2877;48.238;11.160;2023-02-28T05:27:29;-2.50;99.90
5705;DHT22;2877;48.238;11.160;2023-02-28T05:29:54;-2.50;99.90
5705;DHT22;2877;48.238;11.160;2023-02-28T05:32:20;-2.50;99.90
5705;DHT22;2877;48.238;11.160;2023-02-28T05:34:46;-2.50;99.90
5705;DHT22;2877;48.238;11.160;2023-02-28T05:37:13;-2.50;99.90
5705;DHT22;2877;48.238;11.160;2023-02-28T05:39:39;-2.50;99.90
5705;DHT22;2877;48.238;11.160;2023-02-28T05:42:05;-2.50;99.90
5705;DHT22;2877;48.238;11.160;2023-02-28T05:44:30;-2.50;99.90
5705;DHT22;2877;48.238;11.160;2023-02-28T05:46:56;-2.50;99.90
5705;DHT22;2877;48.238;11.160;2023-02-28T05:49:22;-2.50;99.90
5705;DHT22;2877;48.238;11.160;2023-02-28T05:51:47;-2.50;99.90
5705;DHT22;2877;48.238;11.160;2023-02-28T05:54:13;-2.50;99.90
5705;DHT22;2877;48.238;11.160;2023-02-28T05:56:38;-2.50;99.90
5705;DHT22;2877;48.238;11.160;2023-02-28T05:59:05;-2.50;99.90
5705;DHT22;2877;48.238;11.160;2023-02-28T06:01:34;-2.50;99.90
5705;DHT22;2877;48.238;11.160;2023-02-28T06:04:00;-2.50;99.90
5705;DHT22;2877;48.238;11.160;2023-02-28T06:06:26;-2.50;99.90
5705;DHT22;2877;48.238;11.160;2023-02-28T06:08:52;-2.50;99.90
5705;DHT22;2877;48.238;11.160;2023-02-28T06:11:17;-2.50;99.90
5705;DHT22;2877;48.238;11.160;2023-02-28T06:13:45;-2.50;99.90
5705;DHT22;2877;48.238;11.160;2023-02-28T06:16:11;-2.50;99.90
5705;DHT22;2877;48.238;11.160;2023-02-28T06:18:37;-2.50;99.90
5705;DHT22;2877;48.238;11.160;2023-02-28T06:21:03;-2.50;99.90
5705;DHT22;2877;48.238;11.160;2023-02-28T06:23:28;-2.50;99.90
5705;DHT22;2877;48.238;11.160;2023-02-28T06:25:54;-2.50;99.90
5705;DHT22;2877;48.238;11.160;2023-02-28T06:28:24;-2.50;99.90
5705;DHT22;2877;48.238;11.160;2023-02-28T06:30:49;-2.50;99.90
5705;DHT22;2877;48.238;11.160;2023-02-28T06:33:15;-2.40;99.90
5705;DHT22;2877;48.238;11.160;2023-02-28T06:35:44;-2.50;99.90
5705;DHT22;2877;48.238;11.160;2023-02-28T06:38:09;-2.40;99.90
5705;DHT22;2877;48.238;11.160;2023-02-28T06:40:35;-2.40;99.90
5705;DHT22;2877;48.238;11.160;2023-02-28T06:43:02;-2.50;99.90
5705;DHT22;2877;48.238;11.160;2023-02-28T06:45:28;-2.50;99.90
5705;DHT22;2877;48.238;11.160;2023-02-28T06:47:54;-2.50;99.90
5705;DHT22;2877;48.238;11.160;2023-02-28T06:50:19;-2.40;99.90
5705;DHT22;2877;48.238;11.160;2023-02-28T06:52:46;-2.30;99.90
5705;DHT22;2877;48.238;11.160;2023-02-28T06:55:11;-2.30;99.90
5705;DHT22;2877;48.238;11.160;2023-02-28T06:57:37;-2.30;99.90
5705;DHT22;2877;48.238;11.160;2023-02-28T07:00:07;-2.30;99.90
5705;DHT22;2877;48.238;11.160;2023-02-28T07:02:34;-2.30;99.90
5705;DHT22;2877;48.238;11.160;2023-02-28T07:05:00;-2.30;99.90
5705;DHT22;2877;48.238;11.160;2023-02-28T07:07:26;-2.30;99.90
5705;DHT22;2877;48.238;11.160;2023-02-28T07:09:51;-2.30;99.90
5705;DHT22;2877;48.238;11.160;2023-02-28T07:12:17;-2.30;99.90
5705;DHT22;2877;48.238;11.160;2023-02-28T07:14:42;-2.30;99.90
5705;DHT22;2877;48.238;11.160;2023-02-28T07:17:09;-2.30;99.90
5705;DHT22;2877;48.238;11.160;2023-02-28T07:19:36;-2.20;99.90
5705;DHT22;2877;48.238;11.160;2023-02-28T07:22:01;-2.20;99.90
5705;DHT22;2877;48.238;11.160;2023-02-28T07:24:28;-2.20;99.90
5705;DHT22;2877;48.238;11.160;2023-02-28T07:26:55;-2.20;99.90
5705;DHT22;2877;48.238;11.160;2023-02-28T07:29:20;-2.10;99.90
5705;DHT22;2877;48.238;11.160;2023-02-28T07:31:46;-2.10;99.90
5705;DHT22;2877;48.238;11.160;2023-02-28T07:34:12;-2.10;99.90
5705;DHT22;2877;48.238;11.160;2023-02-28T07:36:38;-2.10;99.90
5705;DHT22;2877;48.238;11.160;2023-02-28T07:39:03;-2.10;99.90
5705;DHT22;2877;48.238;11.160;2023-02-28T07:41:30;-2.00;99.90
5705;DHT22;2877;48.238;11.160;2023-02-28T07:43:58;-2.00;99.90
5705;DHT22;2877;48.238;11.160;2023-02-28T07:46:25;-2.00;99.90
5705;DHT22;2877;48.238;11.160;2023-02-28T07:48:51;-1.90;99.90
5705;DHT22;2877;48.238;11.160;2023-02-28T07:51:19;-1.90;99.90
5705;DHT22;2877;48.238;11.160;2023-02-28T07:53:44;-2.00;99.90
5705;DHT22;2877;48.238;11.160;2023-02-28T07:56:10;-2.00;99.90
5705;DHT22;2877;48.238;11.160;2023-02-28T07:58:36;-2.00;99.90
5705;DHT22;2877;48.238;11.160;2023-02-28T08:01:09;-2.00;99.90
5705;DHT22;2877;48.238;11.160;2023-02-28T08:03:35;-2.00;99.90
5705;DHT22;2877;48.238;11.160;2023-02-28T08:06:02;-1.90;99.90
5705;DHT22;2877;48.238;11.160;2023-02-28T08:08:28;-1.80;99.90
5705;DHT22;2877;48.238;11.160;2023-02-28T08:10:59;-1.80;99.90
5705;DHT22;2877;48.238;11.160;2023-02-28T08:13:25;-1.70;99.90
5705;DHT22;2877;48.238;11.160;2023-02-28T08:15:52;-1.70;99.90
5705;DHT22;2877;48.238;11.160;2023-02-28T08:18:19;-1.60;99.90
5705;DHT22;2877;48.238;11.160;2023-02-28T08:20:44;-1.70;99.90
5705;DHT22;2877;48.238;11.160;2023-02-28T08:23:10;-1.60;99.90
5705;DHT22;2877;48.238;11.160;2023-02-28T08:25:35;-1.60;99.90
5705;DHT22;2877;48.238;11.160;2023-02-28T08:28:01;-1.60;99.90
5705;DHT22;2877;48.238;11.160;2023-02-28T08:30:26;-1.60;99.90
5705;DHT22;2877;48.238;11.160;2023-02-28T08:32:52;-1.60;99.90
5705;DHT22;2877;48.238;11.160;2023-02-28T08:35:17;-1.50;99.90
5705;DHT22;2877;48.238;11.160;2023-02-28T08:37:43;-1.50;99.90
5705;DHT22;2877;48.238;11.160;2023-02-28T08:40:09;-1.50;99.90
5705;DHT22;2877;48.238;11.160;2023-02-28T08:42:35;-1.50;99.90
5705;DHT22;2877;48.238;11.160;2023-02-28T08:45:00;-1.30;99.90
5705;DHT22;2877;48.238;11.160;2023-02-28T08:47:26;-1.30;99.90
5705;DHT22;2877;48.238;11.160;2023-02-28T08:49:52;-1.30;99.90
5705;DHT22;2877;48.238;11.160;2023-02-28T08:52:17;-1.20;99.90
5705;DHT22;2877;48.238;11.160;2023-02-28T08:54:43;-1.20;99.90
5705;DHT22;2877;48.238;11.160;2023-02-28T08:57:08;-1.10;99.90
5705;DHT22;2877;48.238;11.160;2023-02-28T08:59:34;-1.10;99.90
5705;DHT22;2877;48.238;11.160;2023-02-28T09:01:59;-1.10;99.90
5705;DHT22;2877;48.238;11.160;2023-02-28T09:04:25;-1.00;99.90
5705;DHT22;2877;48.238;11.160;2023-02-28T09:06:50;-1.00;99.90
5705;DHT22;2877;48.238;11.160;2023-02-28T09:09:16;-1.00;99.90
5705;DHT22;2877;48.238;11.160;2023-02-28T09:11:42;-1.00;99.90
5705;DHT22;2877;48.238;11.160;2023-02-28T09:14:07;-0.80;99.90
5705;DHT22;2877;48.238;11.160;2023-02-28T09:16:33;-0.60;99.90
5705;DHT22;2877;48.238;11.160;2023-02-28T09:18:59;-0.70;99.90
5705;DHT22;2877;48.238;11.160;2023-02-28T09:21:25;-0.70;99.90
5705;DHT22;2877;48.238;11.160;2023-02-28T09:23:51;-0.70;99.90
5705;DHT22;2877;48.238;11.160;2023-02-28T09:26:34;-0.70;99.90
5705;DHT22;2877;48.238;11.160;2023-02-28T09:29:00;-0.70;99.90
5705;DHT22;2877;48.238;11.160;2023-02-28T09:31:28;-0.80;99.90
5705;DHT22;2877;48.238;11.160;2023-02-28T09:33:56;-0.80;99.90
5705;DHT22;2877;48.238;11.160;2023-02-28T09:36:23;-0.70;99.90
5705;DHT22;2877;48.238;11.160;2023-02-28T09:38:49;-0.70;99.90
5705;DHT22;2877;48.238;11.160;2023-02-28T09:41:25;-0.70;99.90
5705;DHT22;2877;48.238;11.160;2023-02-28T09:43:56;-0.40;99.90
5705;DHT22;2877;48.238;11.160;2023-02-28T09:46:37;-0.20;99.90
5705;DHT22;2877;48.238;11.160;2023-02-28T09:49:10;-0.20;99.90
5705;DHT22;2877;48.238;11.160;2023-02-28T09:51:45;-0.10;99.90
5705;DHT22;2877;48.238;11.160;2023-02-28T09:54:32;0.00;99.90
5705;DHT22;2877;48.238;11.160;2023-02-28T10:00:02;0.60;99.90
5705;DHT22;2877;48.238;11.160;2023-02-28T10:05:13;0.80;99.90
5705;DHT22;2877;48.238;11.160;2023-02-28T10:07:50;0.90;99.90
5705;DHT22;2877;48.238;11.160;2023-02-28T10:10:25;1.20;99.90
5705;DHT22;2877;48.238;11.160;2023-02-28T10:12:54;1.10;99.90
5705;DHT22;2877;48.238;11.160;2023-02-28T10:15:23;1.00;99.90
5705;DHT22;2877;48.238;11.160;2023-02-28T10:17:54;0.80;99.90
5705;DHT22;2877;48.238;11.160;2023-02-28T10:20:22;0.70;99.90
5705;DHT22;2877;48.238;11.160;2023-02-28T10:23:11;0.60;99.90
5705;DHT22;2877;48.238;11.160;2023-02-28T10:25:39;0.60;99.90
5705;DHT22;2877;48.238;11.160;2023-02-28T10:28:15;0.70;99.90
5705;DHT22;2877;48.238;11.160;2023-02-28T10:30:46;0.80;99.90
5705;DHT22;2877;48.238;11.160;2023-02-28T10:33:30;1.10;99.90
5705;DHT22;2877;48.238;11.160;2023-02-28T10:35:57;1.10;99.90
5705;DHT22;2877;48.238;11.160;2023-02-28T10:38:43;1.20;99.90
5705;DHT22;2877;48.238;11.160;2023-02-28T10:41:12;1.30;99.90
5705;DHT22;2877;48.238;11.160;2023-02-28T10:43:40;1.30;99.90
5705;DHT22;2877;48.238;11.160;2023-02-28T10:48:40;1.60;99.90
5705;DHT22;2877;48.238;11.160;2023-02-28T10:51:13;1.70;99.90
5705;DHT22;2877;48.238;11.160;2023-02-28T10:53:51;1.70;99.90
5705;DHT22;2877;48.238;11.160;2023-02-28T10:56:18;1.40;99.90
5705;DHT22;2877;48.238;11.160;2023-02-28T11:01:21;1.50;99.90
5705;DHT22;2877;48.238;11.160;2023-02-28T11:03:47;1.70;99.90
5705;DHT22;2877;48.238;11.160;2023-02-28T11:08:47;1.70;99.90
5705;DHT22;2877;48.238;11.160;2023-02-28T11:11:13;1.80;99.90
5705;DHT22;2877;48.238;11.160;2023-02-28T11:13:39;1.60;99.90
5705;DHT22;2877;48.238;11.160;2023-02-28T11:16:07;1.70;99.90
5705;DHT22;2877;48.238;11.160;2023-02-28T11:18:43;1.80;99.90
5705;DHT22;2877;48.238;11.160;2023-02-28T11:21:18;2.00;99.90
5705;DHT22;2877;48.238;11.160;2023-02-28T11:23:45;2.30;99.90
5705;DHT22;2877;48.238;11.160;2023-02-28T11:26:11;2.30;99.90
5705;DHT22;2877;48.238;11.160;2023-02-28T11:28:41;2.00;99.90
5705;DHT22;2877;48.238;11.160;2023-02-28T11:33:46;1.90;99.90
5705;DHT22;2877;48.238;11.160;2023-02-28T11:36:21;1.90;99.90
5705;DHT22;2877;48.238;11.160;2023-02-28T11:38:50;2.00;99.90
5705;DHT22;2877;48.238;11.160;2023-02-28T11:46:47;2.40;99.90
5705;DHT22;2877;48.238;11.160;2023-02-28T11:49:20;2.40;99.90
5705;DHT22;2877;48.238;11.160;2023-02-28T11:54:54;2.10;99.90
5705;DHT22;2877;48.238;11.160;2023-02-28T12:00:50;2.20;99.90
5705;DHT22;2877;48.238;11.160;2023-02-28T12:09:04;2.90;99.90
5705;DHT22;2877;48.238;11.160;2023-02-28T12:11:51;3.20;99.90
5705;DHT22;2877;48.238;11.160;2023-02-28T12:14:41;3.20;99.90
5705;DHT22;2877;48.238;11.160;2023-02-28T12:22:48;3.10;99.90
5705;DHT22;2877;48.238;11.160;2023-02-28T12:25:20;3.20;99.90
5705;DHT22;2877;48.238;11.160;2023-02-28T12:27:47;3.20;99.90
5705;DHT22;2877;48.238;11.160;2023-02-28T12:32:47;3.40;99.90
5705;DHT22;2877;48.238;11.160;2023-02-28T12:35:18;3.20;99.40
5705;DHT22;2877;48.238;11.160;2023-02-28T12:37:51;3.20;99.90
5705;DHT22;2877;48.238;11.160;2023-02-28T12:40:23;3.40;99.90
5705;DHT22;2877;48.238;11.160;2023-02-28T12:43:02;3.70;99.90
5705;DHT22;2877;48.238;11.160;2023-02-28T12:48:11;3.60;98.80
5705;DHT22;2877;48.238;11.160;2023-02-28T12:50:40;3.40;99.40
5705;DHT22;2877;48.238;11.160;2023-02-28T12:53:11;3.30;98.60
5705;DHT22;2877;48.238;11.160;2023-02-28T12:55:50;3.20;99.10
5705;DHT22;2877;48.238;11.160;2023-02-28T13:04:04;3.10;99.30
5705;DHT22;2877;48.238;11.160;2023-02-28T13:06:37;3.40;99.90
5705;DHT22;2877;48.238;11.160;2023-02-28T13:09:14;3.50;98.80
5705;DHT22;2877;48.238;11.160;2023-02-28T13:11:51;3.30;98.70
5705;DHT22;2877;48.238;11.160;2023-02-28T13:14:29;3.20;99.50
5705;DHT22;2877;48.238;11.160;2023-02-28T13:25:00;4.00;96.80
5705;DHT22;2877;48.238;11.160;2023-02-28T13:27:33;3.90;97.00
5705;DHT22;2877;48.238;11.160;2023-02-28T13:29:59;3.90;96.80
5705;DHT22;2877;48.238;11.160;2023-02-28T13:39:55;3.70;96.80
5705;DHT22;2877;48.238;11.160;2023-02-28T13:47:35;3.50;96.80
5705;DHT22;2877;48.238;11.160;2023-02-28T13:50:21;3.20;97.50
5705;DHT22;2877;48.238;11.160;2023-02-28T13:55:54;3.50;97.90
5705;DHT22;2877;48.238;11.160;2023-02-28T14:01:31;3.80;99.40
5705;DHT22;2877;48.238;11.160;2023-02-28T14:06:55;3.90;98.20
5705;DHT22;2877;48.238;11.160;2023-02-28T14:09:34;3.80;98.00
5705;DHT22;2877;48.238;11.160;2023-02-28T14:15:25;3.80;96.40
5705;DHT22;2877;48.238;11.160;2023-02-28T14:17:52;3.70;97.80
5705;DHT22;2877;48.238;11.160;2023-02-28T14:20:20;3.50;97.20
5705;DHT22;2877;48.238;11.160;2023-02-28T14:22:55;3.60;98.30
5705;DHT22;2877;48.238;11.160;2023-02-28T14:28:33;3.60;97.70
5705;DHT22;2877;48.238;11.160;2023-02-28T14:31:25;3.50;97.50
5705;DHT22;2877;48.238;11.160;2023-02-28T14:34:13;3.50;97.80
5705;DHT22;2877;48.238;11.160;2023-02-28T14:36:43;3.40;98.10
5705;DHT22;2877;48.238;11.160;2023-02-28T14:39:22;3.40;98.30
5705;DHT22;2877;48.238;11.160;2023-02-28T14:41:49;3.50;98.20
5705;DHT22;2877;48.238;11.160;2023-02-28T14:44:22;3.50;98.20
5705;DHT22;2877;48.238;11.160;2023-02-28T14:46:59;3.50;98.20
5705;DHT22;2877;48.238;11.160;2023-02-28T14:49:41;3.50;98.80
5705;DHT22;2877;48.238;11.160;2023-02-28T14:52:23;3.40;97.50
5705;DHT22;2877;48.238;11.160;2023-02-28T14:55:01;3.50;98.80
5705;DHT22;2877;48.238;11.160;2023-02-28T14:57:33;3.40;97.70
5705;DHT22;2877;48.238;11.160;2023-02-28T15:02:46;3.10;99.30
5705;DHT22;2877;48.238;11.160;2023-02-28T15:07:37;3.30;99.20
5705;DHT22;2877;48.238;11.160;2023-02-28T15:10:16;3.30;98.30
5705;DHT22;2877;48.238;11.160;2023-02-28T15:12:54;3.30;98.10
5705;DHT22;2877;48.238;11.160;2023-02-28T15:15:40;3.30;98.20
5705;DHT22;2877;48.238;11.160;2023-02-28T15:18:10;3.20;98.60
5705;DHT22;2877;48.238;11.160;2023-02-28T15:20:39;3.20;98.90
5705;DHT22;2877;48.238;11.160;2023-02-28T15:23:06;3.20;99.00
5705;DHT22;2877;48.238;11.160;2023-02-28T15:25:32;3.20;99.20
5705;DHT22;2877;48.238;11.160;2023-02-28T15:27:58;3.10;99.40
5705;DHT22;2877;48.238;11.160;2023-02-28T15:30:30;3.00;99.20
5705;DHT22;2877;48.238;11.160;2023-02-28T15:33:22;2.90;99.50
5705;DHT22;2877;48.238;11.160;2023-02-28T15:35:48;2.80;99.80
5705;DHT22;2877;48.238;11.160;2023-02-28T15:38:23;2.70;99.90
5705;DHT22;2877;48.238;11.160;2023-02-28T15:40:52;2.70;99.90
5705;DHT22;2877;48.238;11.160;2023-02-28T15:43:26;2.70;99.90
5705;DHT22;2877;48.238;11.160;2023-02-28T15:45:58;2.60;99.90
5705;DHT22;2877;48.238;11.160;2023-02-28T15:48:33;2.50;99.90
5705;DHT22;2877;48.238;11.160;2023-02-28T15:53:44;2.50;99.90
5705;DHT22;2877;48.238;11.160;2023-02-28T15:56:29;2.40;99.90
5705;DHT22;2877;48.238;11.160;2023-02-28T15:58:56;2.30;99.90
5705;DHT22;2877;48.238;11.160;2023-02-28T16:01:32;2.30;99.90
5705;DHT22;2877;48.238;11.160;2023-02-28T16:04:10;2.20;99.90
5705;DHT22;2877;48.238;11.160;2023-02-28T16:06:42;2.10;99.90
5705;DHT22;2877;48.238;11.160;2023-02-28T16:09:13;2.10;99.90
5705;DHT22;2877;48.238;11.160;2023-02-28T16:11:48;2.10;99.90
5705;DHT22;2877;48.238;11.160;2023-02-28T16:14:21;2.00;99.90
5705;DHT22;2877;48.238;11.160;2023-02-28T16:16:50;2.00;99.90
5705;DHT22;2877;48.238;11.160;2023-02-28T16:19:17;1.90;99.90
5705;DHT22;2877;48.238;11.160;2023-02-28T16:21:42;1.90;99.90
5705;DHT22;2877;48.238;11.160;2023-02-28T16:24:08;1.80;99.90
5705;DHT22;2877;48.238;11.160;2023-02-28T16:26:34;1.80;99.90
5705;DHT22;2877;48.238;11.160;2023-02-28T16:29:01;1.70;99.90
5705;DHT22;2877;48.238;11.160;2023-02-28T16:31:28;1.70;99.90
5705;DHT22;2877;48.238;11.160;2023-02-28T16:33:54;1.60;99.90
5705;DHT22;2877;48.238;11.160;2023-02-28T16:36:22;1.50;99.90
5705;DHT22;2877;48.238;11.160;2023-02-28T16:38:50;1.40;99.90
5705;DHT22;2877;48.238;11.160;2023-02-28T16:41:18;1.40;99.90
5705;DHT22;2877;48.238;11.160;2023-02-28T16:43:46;1.40;99.90
5705;DHT22;2877;48.238;11.160;2023-02-28T16:46:13;1.40;99.90
5705;DHT22;2877;48.238;11.160;2023-02-28T16:48:39;1.30;99.90
5705;DHT22;2877;48.238;11.160;2023-02-28T16:51:08;1.20;99.90
5705;DHT22;2877;48.238;11.160;2023-02-28T16:53:36;1.10;99.90
5705;DHT22;2877;48.238;11.160;2023-02-28T16:56:02;1.00;99.90
5705;DHT22;2877;48.238;11.160;2023-02-28T16:58:28;0.80;99.90
5705;DHT22;2877;48.238;11.160;2023-02-28T17:00:53;0.70;99.90
5705;DHT22;2877;48.238;11.160;2023-02-28T17:03:24;0.60;99.90
5705;DHT22;2877;48.238;11.160;2023-02-28T17:05:50;0.50;99.90
5705;DHT22;2877;48.238;11.160;2023-02-28T17:08:16;0.40;99.90
5705;DHT22;2877;48.238;11.160;2023-02-28T17:10:41;0.20;99.90
5705;DHT22;2877;48.238;11.160;2023-02-28T17:13:07;0.10;99.90
5705;DHT22;2877;48.238;11.160;2023-02-28T17:15:34;0.00;99.90
5705;DHT22;2877;48.238;11.160;2023-02-28T17:17:59;-0.10;99.90
5705;DHT22;2877;48.238;11.160;2023-02-28T17:20:25;-0.10;99.90
5705;DHT22;2877;48.238;11.160;2023-02-28T17:22:52;-0.20;99.90
5705;DHT22;2877;48.238;11.160;2023-02-28T17:25:18;-0.30;99.90
5705;DHT22;2877;48.238;11.160;2023-02-28T17:27:44;-0.40;99.90
5705;DHT22;2877;48.238;11.160;2023-02-28T17:30:15;-0.50;99.90
5705;DHT22;2877;48.238;11.160;2023-02-28T17:32:41;-0.50;99.90
5705;DHT22;2877;48.238;11.160;2023-02-28T17:35:07;-0.60;99.90
5705;DHT22;2877;48.238;11.160;2023-02-28T17:37:33;-0.70;99.90
5705;DHT22;2877;48.238;11.160;2023-02-28T17:39:58;-0.70;99.90
5705;DHT22;2877;48.238;11.160;2023-02-28T17:42:24;-0.80;99.90
5705;DHT22;2877;48.238;11.160;2023-02-28T17:44:49;-0.90;99.90
5705;DHT22;2877;48.238;11.160;2023-02-28T17:47:15;-0.90;99.90
5705;DHT22;2877;48.238;11.160;2023-02-28T17:49:40;-0.90;99.90
5705;DHT22;2877;48.238;11.160;2023-02-28T17:52:07;-0.80;99.90
5705;DHT22;2877;48.238;11.160;2023-02-28T17:54:32;-0.70;99.90
5705;DHT22;2877;48.238;11.160;2023-02-28T17:56:58;-0.60;99.90
5705;DHT22;2877;48.238;11.160;2023-02-28T17:59:23;-0.40;99.90
5705;DHT22;2877;48.238;11.160;2023-02-28T18:01:49;-0.40;99.90
5705;DHT22;2877;48.238;11.160;2023-02-28T18:04:14;-0.30;99.90
5705;DHT22;2877;48.238;11.160;2023-02-28T18:06:42;-0.30;99.90